Weather at Oseberg C Platform

Public forecast

Using degrees Celsius for public forecast. Weather courtesy of forecast.io.

Closest aviation weather report (METAR) to Oseberg C Platform

Closest report is Oseberg A Platform, 7.1 nm (13.2 km) SSE.

2024/07/21 12:50 (retrieved 30 minutes ago)

ENOA 211250Z 29015KT 9999 SCT006 BKN035 13/12 Q1010 W///S4

Closest aviation forecast (TAF) to Oseberg C Platform

Closest forecast is Oseberg A Platform, 7.1 nm (13.2 km) SSE.

2024/07/21 12:36 (retrieved 44 minutes ago)

TAF ENOA 211100Z 2112/2212 17030KT 9999 -SHRA SCT005 BKN030 PROB30 2112/2113 0800 FG VV002 BECMG 2112/2114 27020KT TEMPO 2113/2212 BKN012 BECMG 2200/2203 26009KT